createdAt,value
2023-03-19T00:01:48.529Z,100467.47
2023-03-19T00:04:16.266Z,100466.97
2023-03-19T00:06:43.385Z,100468.13
2023-03-19T00:09:09.853Z,100469.31
2023-03-19T00:11:36.376Z,100458.06
2023-03-19T00:14:02.714Z,100467.31
2023-03-19T00:16:29.105Z,100463.28
2023-03-19T00:18:55.448Z,100459.06
2023-03-19T00:21:24.203Z,100458.44
2023-03-19T00:23:52.153Z,100454.88
2023-03-19T00:26:18.998Z,100460.25
2023-03-19T00:28:45.386Z,100457.56
2023-03-19T00:31:15.143Z,100456.56
2023-03-19T00:33:42.753Z,100457.41
2023-03-19T00:36:10.843Z,100459.94
2023-03-19T00:38:37.186Z,100460.78
2023-03-19T00:41:05.145Z,100462.44
2023-03-19T00:43:32.191Z,100458.91
2023-03-19T00:45:58.823Z,100454.38
2023-03-19T00:48:25.562Z,100458.91
2023-03-19T00:50:52.085Z,100462.44
2023-03-19T00:53:19.125Z,100467.81
2023-03-19T00:55:46.200Z,100468.63
2023-03-19T00:58:12.706Z,100465.13
2023-03-19T01:00:39.292Z,100456.22
2023-03-19T01:03:06.596Z,100465.31
2023-03-19T01:05:36.231Z,100465.31
2023-03-19T01:08:02.735Z,100462.63
2023-03-19T01:10:32.960Z,100463.59
2023-03-19T01:12:59.499Z,100478.88
2023-03-19T01:15:26.155Z,100469.16
2023-03-19T01:17:52.493Z,100478.06
2023-03-19T01:20:19.103Z,100476.34
2023-03-19T01:22:46.065Z,100480.75
2023-03-19T01:25:14.221Z,100481.41
2023-03-19T01:27:40.749Z,100487.63
2023-03-19T01:30:07.820Z,100484.75
2023-03-19T01:32:34.276Z,100477.38
2023-03-19T01:35:01.010Z,100478.88
2023-03-19T01:37:28.220Z,100471.34
2023-03-19T01:39:54.662Z,100480.06
2023-03-19T01:42:21.471Z,100481.75
2023-03-19T01:44:47.859Z,100474.34
2023-03-19T01:47:38.945Z,100479.41
2023-03-19T01:50:06.194Z,100481.75
2023-03-19T01:52:34.590Z,100476.19
2023-03-19T01:55:05.003Z,100473.34
2023-03-19T01:57:32.398Z,100469.31
2023-03-19T02:00:01.653Z,100471.66
2023-03-19T02:02:35.989Z,100474.84
2023-03-19T02:05:12.585Z,100476.34
2023-03-19T02:07:42.470Z,100465.25
2023-03-19T02:10:12.397Z,100459.53
2023-03-19T02:12:38.931Z,100463.94
2023-03-19T02:15:07.218Z,100460.88
2023-03-19T02:17:34.471Z,100463.22
2023-03-19T02:20:08.681Z,100456.50
2023-03-19T02:22:41.081Z,100453.47
2023-03-19T02:25:16.573Z,100454.19
2023-03-19T02:27:43.725Z,100444.75
2023-03-19T02:30:32.626Z,100448.78
2023-03-19T02:32:59.275Z,100446.72
2023-03-19T02:35:30.879Z,100437.31
2023-03-19T02:37:57.242Z,100440.69
2023-03-19T02:40:29.360Z,100440.34
2023-03-19T02:42:55.820Z,100445.56
2023-03-19T02:45:24.834Z,100441.00
2023-03-19T02:47:51.435Z,100447.03
2023-03-19T02:50:17.776Z,100449.72
2023-03-19T02:52:44.119Z,100450.75
2023-03-19T02:55:10.551Z,100447.22
2023-03-19T02:57:36.886Z,100451.75
2023-03-19T03:00:05.074Z,100452.75
2023-03-19T03:02:31.660Z,100455.63
2023-03-19T03:04:58.038Z,100454.97
2023-03-19T03:07:24.437Z,100455.13
2023-03-19T03:09:51.080Z,100451.78
2023-03-19T03:12:17.418Z,100455.66
2023-03-19T03:14:43.800Z,100461.19
2023-03-19T03:17:10.301Z,100459.69
2023-03-19T03:19:36.725Z,100462.38
2023-03-19T03:22:03.295Z,100454.47
2023-03-19T03:24:29.905Z,100460.88
2023-03-19T03:26:56.248Z,100465.22
2023-03-19T03:29:22.737Z,100463.41
2023-03-19T03:31:49.253Z,100461.56
2023-03-19T03:34:15.838Z,100462.38
2023-03-19T03:36:42.204Z,100460.53
2023-03-19T03:39:08.652Z,100465.06
2023-03-19T03:41:35.054Z,100466.72
2023-03-19T03:44:01.400Z,100468.59
2023-03-19T03:46:28.001Z,100462.38
2023-03-19T03:48:54.448Z,100464.25
2023-03-19T03:51:22.115Z,100466.25
2023-03-19T03:53:48.584Z,100467.28
2023-03-19T03:56:15.031Z,100462.88
2023-03-19T03:58:41.591Z,100473.00
2023-03-19T04:01:08.863Z,100473.84
2023-03-19T04:03:35.547Z,100475.69
2023-03-19T04:06:01.950Z,100473.00
2023-03-19T04:08:28.332Z,100472.81
2023-03-19T04:10:54.713Z,100473.66
2023-03-19T04:13:21.500Z,100467.28
2023-03-19T04:15:48.614Z,100474.16
2023-03-19T04:18:15.615Z,100472.31
2023-03-19T04:20:41.987Z,100472.78
2023-03-19T04:23:08.384Z,100473.63
2023-03-19T04:25:34.979Z,100476.97
2023-03-19T04:28:01.368Z,100480.34
2023-03-19T04:30:28.121Z,100484.69
2023-03-19T04:32:54.724Z,100481.69
2023-03-19T04:35:21.473Z,100474.25
2023-03-19T04:37:48.737Z,100478.47
2023-03-19T04:40:16.945Z,100483.69
2023-03-19T04:42:44.599Z,100474.44
2023-03-19T04:45:11.457Z,100477.78
2023-03-19T04:47:37.838Z,100474.91
2023-03-19T04:50:05.597Z,100483.66
2023-03-19T04:52:33.280Z,100484.31
2023-03-19T04:54:59.592Z,100490.53
2023-03-19T04:57:25.918Z,100492.19
2023-03-19T04:59:52.319Z,100489.19
2023-03-19T05:02:19.212Z,100495.41
2023-03-19T05:04:45.667Z,100487.13
2023-03-19T05:07:12.431Z,100476.22
2023-03-19T05:09:39.057Z,100480.56
2023-03-19T05:12:05.953Z,100493.88
2023-03-19T05:14:32.524Z,100490.97
2023-03-19T05:16:58.907Z,100483.94
2023-03-19T05:19:25.637Z,100490.97
2023-03-19T05:21:52.005Z,100490.97
2023-03-19T05:24:18.348Z,100491.84
2023-03-19T05:26:44.698Z,100490.16
2023-03-19T05:29:11.914Z,100492.69
2023-03-19T05:31:38.596Z,100495.38
2023-03-19T05:34:05.083Z,100495.38
2023-03-19T05:36:31.459Z,100490.97
2023-03-19T05:38:57.880Z,100502.59
2023-03-19T05:41:24.340Z,100494.69
2023-03-19T05:43:51.208Z,100489.31
2023-03-19T05:46:17.642Z,100498.41
2023-03-19T05:48:44.057Z,100491.34
2023-03-19T05:51:11.543Z,100493.03
2023-03-19T05:53:38.041Z,100500.22
2023-03-19T05:56:04.651Z,100494.69
2023-03-19T05:58:31.000Z,100500.91
2023-03-19T06:00:57.728Z,100507.97
2023-03-19T06:03:24.901Z,100507.97
2023-03-19T06:05:51.747Z,100510.47
2023-03-19T06:08:18.822Z,100507.78
2023-03-19T06:10:45.644Z,100507.63
2023-03-19T06:13:12.093Z,100514.69
2023-03-19T06:15:38.750Z,100507.28
2023-03-19T06:18:05.248Z,100517.00
2023-03-19T06:20:32.013Z,100510.63
2023-03-19T06:22:58.578Z,100509.63
2023-03-19T06:25:24.964Z,100513.13
2023-03-19T06:27:51.400Z,100510.09
2023-03-19T06:30:17.846Z,100513.66
2023-03-19T06:32:44.340Z,100516.97
2023-03-19T06:35:11.206Z,100524.88
2023-03-19T06:37:37.712Z,100527.41
2023-03-19T06:40:05.147Z,100532.59
2023-03-19T06:42:31.592Z,100536.81
2023-03-19T06:44:57.945Z,100542.84
2023-03-19T06:47:24.367Z,100539.81
2023-03-19T06:49:51.318Z,100542.97
2023-03-19T06:52:17.635Z,100543.50
2023-03-19T06:54:44.005Z,100543.13
2023-03-19T06:57:10.388Z,100539.94
2023-03-19T06:59:36.787Z,100553.69
2023-03-19T07:02:03.598Z,100553.34
2023-03-19T07:04:30.423Z,100552.81
2023-03-19T07:06:56.845Z,100553.13
2023-03-19T07:09:23.441Z,100556.13
2023-03-19T07:11:49.753Z,100558.28
2023-03-19T07:14:16.436Z,100565.47
2023-03-19T07:16:42.806Z,100566.59
2023-03-19T07:19:09.174Z,100570.97
2023-03-19T07:21:35.919Z,100576.31
2023-03-19T07:24:02.385Z,100580.81
2023-03-19T07:26:28.736Z,100592.34
2023-03-19T07:28:55.563Z,100577.97
2023-03-19T07:31:22.124Z,100577.91
2023-03-19T07:33:48.540Z,100578.50
2023-03-19T07:36:14.956Z,100584.50
2023-03-19T07:38:41.359Z,100590.28
2023-03-19T07:41:07.927Z,100589.00
2023-03-19T07:43:34.355Z,100597.50
2023-03-19T07:46:01.442Z,100592.00
2023-03-19T07:48:27.960Z,100589.22
2023-03-19T07:50:54.393Z,100589.34
2023-03-19T07:53:20.989Z,100593.16
2023-03-19T07:55:47.982Z,100596.16
2023-03-19T07:58:14.801Z,100593.91
2023-03-19T08:00:41.433Z,100595.25
2023-03-19T08:03:08.084Z,100595.88
2023-03-19T08:05:34.490Z,100595.50
2023-03-19T08:08:01.186Z,100596.13
2023-03-19T08:10:27.577Z,100592.06
2023-03-19T08:12:54.145Z,100594.38
2023-03-19T08:15:20.589Z,100590.28
2023-03-19T08:17:47.005Z,100588.69
2023-03-19T08:20:18.446Z,100598.72
2023-03-19T08:22:49.568Z,100602.38
2023-03-19T08:25:15.985Z,100599.94
2023-03-19T08:27:42.506Z,100608.97
2023-03-19T08:30:09.769Z,100612.56
2023-03-19T08:32:37.214Z,100611.81
2023-03-19T08:35:04.502Z,100611.22
2023-03-19T08:37:30.828Z,100619.22
2023-03-19T08:39:57.449Z,100614.94
2023-03-19T08:42:23.876Z,100620.22
2023-03-19T08:44:50.509Z,100614.88
2023-03-19T08:47:17.186Z,100610.38
2023-03-19T08:49:43.587Z,100618.38
2023-03-19T08:52:10.048Z,100626.56
2023-03-19T08:54:36.847Z,100630.16
2023-03-19T08:57:03.685Z,100630.41
2023-03-19T08:59:32.575Z,100624.44
2023-03-19T09:02:00.336Z,100635.31
2023-03-19T09:04:26.747Z,100628.28
2023-03-19T09:06:53.200Z,100631.44
2023-03-19T09:09:21.033Z,100640.19
2023-03-19T09:11:47.793Z,100637.03
2023-03-19T09:14:16.519Z,100641.19
2023-03-19T09:16:43.571Z,100649.03
2023-03-19T09:19:10.055Z,100652.31
2023-03-19T09:21:36.932Z,100644.78
2023-03-19T09:24:04.263Z,100652.28
2023-03-19T09:26:31.128Z,100651.41
2023-03-19T09:28:58.718Z,100649.34
2023-03-19T09:31:27.235Z,100662.69
2023-03-19T09:33:54.828Z,100656.06
2023-03-19T09:36:21.178Z,100657.56
2023-03-19T09:38:47.573Z,100664.44
2023-03-19T09:41:26.611Z,100659.06
2023-03-19T09:44:05.035Z,100661.19
2023-03-19T09:46:36.593Z,100656.22
2023-03-19T09:49:12.614Z,100661.72
2023-03-19T09:51:44.838Z,100665.94
2023-03-19T09:54:31.846Z,100663.72
2023-03-19T09:56:58.588Z,100661.25
2023-03-19T09:59:27.159Z,100657.78
2023-03-19T10:02:21.590Z,100668.47
2023-03-19T10:05:22.497Z,100673.47
2023-03-19T10:08:03.607Z,100677.84
2023-03-19T10:11:08.301Z,100669.09
2023-03-19T10:13:43.705Z,100680.31
2023-03-19T10:16:19.189Z,100682.00
2023-03-19T10:18:49.943Z,100681.16
2023-03-19T10:21:48.332Z,100677.41
2023-03-19T10:24:37.000Z,100685.34
2023-03-19T10:27:15.162Z,100684.97
2023-03-19T10:29:42.086Z,100686.03
2023-03-19T10:32:28.161Z,100680.69
2023-03-19T10:34:58.311Z,100684.69
2023-03-19T10:37:28.208Z,100680.81
2023-03-19T10:39:57.523Z,100683.16
2023-03-19T10:42:32.928Z,100678.19
2023-03-19T10:45:05.721Z,100681.34
2023-03-19T10:47:39.010Z,100678.69
2023-03-19T10:50:06.095Z,100685.22
2023-03-19T10:52:35.678Z,100687.31
2023-03-19T10:55:14.926Z,100683.00
2023-03-19T10:57:43.416Z,100689.50
2023-03-19T11:00:20.462Z,100690.13
2023-03-19T11:02:49.443Z,100684.91
2023-03-19T11:05:24.764Z,100689.72
2023-03-19T11:08:03.805Z,100694.06
2023-03-19T11:10:33.374Z,100700.09
2023-03-19T11:13:05.014Z,100700.88
2023-03-19T11:15:38.060Z,100696.28
2023-03-19T11:18:29.349Z,100696.72
2023-03-19T11:21:05.373Z,100692.09
2023-03-19T11:23:40.195Z,100701.31
2023-03-19T11:26:07.207Z,100698.81
2023-03-19T11:28:37.546Z,100697.63
2023-03-19T11:31:41.766Z,100695.56
2023-03-19T11:34:33.913Z,100696.59
2023-03-19T11:37:03.395Z,100694.72
2023-03-19T11:40:08.344Z,100696.59
2023-03-19T11:42:37.192Z,100693.47
2023-03-19T11:45:09.469Z,100706.41
2023-03-19T11:47:47.701Z,100698.06
2023-03-19T11:50:36.763Z,100695.75
2023-03-19T11:53:18.345Z,100701.75
2023-03-19T11:56:17.497Z,100702.16
2023-03-19T11:58:58.477Z,100708.19
2023-03-19T12:01:46.742Z,100703.19
2023-03-19T12:04:25.885Z,100689.22
2023-03-19T12:07:05.226Z,100691.28
2023-03-19T12:09:49.811Z,100699.41
2023-03-19T12:12:27.032Z,100694.63
2023-03-19T12:15:14.298Z,100698.59
2023-03-19T12:18:12.858Z,100690.91
2023-03-19T12:20:55.111Z,100697.56
2023-03-19T12:23:59.187Z,100694.25
2023-03-19T12:26:50.954Z,100692.81
2023-03-19T12:29:27.457Z,100693.91
2023-03-19T12:32:25.426Z,100693.06
2023-03-19T12:34:55.189Z,100696.41
2023-03-19T12:37:42.452Z,100692.06
2023-03-19T12:40:13.928Z,100687.66
2023-03-19T12:42:42.071Z,100683.28
2023-03-19T12:45:27.354Z,100683.91
2023-03-19T12:48:01.363Z,100693.09
2023-03-19T12:50:31.186Z,100687.25
2023-03-19T12:53:00.447Z,100692.69
2023-03-19T12:55:42.878Z,100692.44
2023-03-19T12:58:34.137Z,100690.56
2023-03-19T13:01:09.740Z,100687.19
2023-03-19T13:03:52.345Z,100693.88
2023-03-19T13:06:43.437Z,100693.44
2023-03-19T13:09:31.431Z,100694.06
2023-03-19T13:12:10.570Z,100688.44
2023-03-19T13:14:55.077Z,100692.81
2023-03-19T13:17:46.796Z,100697.19
2023-03-19T13:20:47.178Z,100693.88
2023-03-19T13:23:22.469Z,100697.84
2023-03-19T13:25:50.392Z,100697.22
2023-03-19T13:28:28.126Z,100699.31
2023-03-19T13:31:08.317Z,100687.81
2023-03-19T13:33:37.602Z,100689.50
2023-03-19T13:36:14.871Z,100696.19
2023-03-19T13:38:46.759Z,100688.66
2023-03-19T13:41:39.088Z,100694.75
2023-03-19T13:44:29.328Z,100693.94
2023-03-19T13:46:55.701Z,100689.53
2023-03-19T13:49:26.413Z,100692.03
2023-03-19T13:51:59.967Z,100682.03
2023-03-19T13:54:38.842Z,100681.19
2023-03-19T13:57:06.691Z,100685.34
2023-03-19T13:59:33.306Z,100675.75
2023-03-19T14:02:01.311Z,100682.88
2023-03-19T14:04:37.112Z,100685.16
2023-03-19T14:07:15.433Z,100682.66
2023-03-19T14:09:46.143Z,100679.72
2023-03-19T14:12:15.227Z,100680.53
2023-03-19T14:14:49.023Z,100681.38
2023-03-19T14:17:20.014Z,100680.53
2023-03-19T14:19:46.907Z,100680.53
2023-03-19T14:22:16.408Z,100681.78
2023-03-19T14:24:57.754Z,100684.66
2023-03-19T14:27:32.852Z,100680.28
2023-03-19T14:30:09.372Z,100677.31
2023-03-19T14:32:42.505Z,100678.75
2023-03-19T14:35:16.522Z,100670.81
2023-03-19T14:37:49.775Z,100681.06
2023-03-19T14:40:20.854Z,100675.00
2023-03-19T14:42:55.911Z,100677.53
2023-03-19T14:45:49.794Z,100675.84
2023-03-19T14:48:58.072Z,100675.84
2023-03-19T14:51:51.193Z,100679.22
2023-03-19T14:54:42.555Z,100681.50
2023-03-19T14:57:16.928Z,100688.19
2023-03-19T14:59:43.434Z,100684.19
2023-03-19T15:02:19.599Z,100687.94
2023-03-19T15:04:48.183Z,100689.59
2023-03-19T15:07:28.663Z,100681.63
2023-03-19T15:09:55.830Z,100677.84
2023-03-19T15:12:27.968Z,100682.88
2023-03-19T15:15:09.988Z,100679.94
2023-03-19T15:17:39.509Z,100680.16
2023-03-19T15:20:21.793Z,100689.34
2023-03-19T15:23:01.226Z,100683.28
2023-03-19T15:25:28.189Z,100678.28
2023-03-19T15:28:13.659Z,100671.19
2023-03-19T15:30:53.751Z,100678.72
2023-03-19T15:33:39.454Z,100682.28
2023-03-19T15:36:24.382Z,100683.34
2023-03-19T15:39:02.457Z,100677.88
2023-03-19T15:41:32.069Z,100675.81
2023-03-19T15:44:00.309Z,100685.03
2023-03-19T15:46:33.172Z,100681.69
2023-03-19T15:49:10.914Z,100683.56
2023-03-19T15:51:38.114Z,100685.66
2023-03-19T15:54:05.546Z,100684.22
2023-03-19T15:56:32.523Z,100682.56
2023-03-19T15:58:59.972Z,100692.81
2023-03-19T16:01:27.443Z,100693.00
2023-03-19T16:04:01.008Z,100703.06
2023-03-19T16:06:33.009Z,100707.28
2023-03-19T16:09:22.975Z,100706.00
2023-03-19T16:11:49.885Z,100709.59
2023-03-19T16:14:29.926Z,100702.47
2023-03-19T16:17:02.188Z,100701.88
2023-03-19T16:19:36.264Z,100701.88
2023-03-19T16:22:12.623Z,100712.75
2023-03-19T16:24:42.127Z,100712.09
2023-03-19T16:27:13.265Z,100710.66
2023-03-19T16:29:41.959Z,100706.91
2023-03-19T16:32:19.433Z,100706.28
2023-03-19T16:34:49.044Z,100711.50
2023-03-19T16:37:40.067Z,100713.97
2023-03-19T16:40:12.469Z,100717.31
2023-03-19T16:42:39.492Z,100719.00
2023-03-19T16:45:14.705Z,100726.31
2023-03-19T16:47:42.182Z,100726.53
2023-03-19T16:50:09.559Z,100722.78
2023-03-19T16:52:38.450Z,100726.09
2023-03-19T16:55:12.745Z,100726.72
2023-03-19T16:57:39.092Z,100722.75
2023-03-19T17:00:06.024Z,100730.09
2023-03-19T17:02:32.446Z,100728.63
2023-03-19T17:04:58.867Z,100732.78
2023-03-19T17:07:25.441Z,100732.38
2023-03-19T17:09:51.817Z,100741.16
2023-03-19T17:12:18.294Z,100739.91
2023-03-19T17:14:44.741Z,100748.88
2023-03-19T17:17:19.305Z,100746.81
2023-03-19T17:19:46.918Z,100753.28
2023-03-19T17:22:14.293Z,100754.50
2023-03-19T17:24:40.797Z,100759.28
2023-03-19T17:27:07.204Z,100761.56
2023-03-19T17:29:33.800Z,100760.28
2023-03-19T17:32:04.220Z,100774.44
2023-03-19T17:34:31.957Z,100763.50
2023-03-19T17:37:03.929Z,100773.06
2023-03-19T17:39:31.417Z,100780.50
2023-03-19T17:41:57.772Z,100773.31
2023-03-19T17:44:24.364Z,100787.44
2023-03-19T17:46:53.279Z,100781.53
2023-03-19T17:49:32.385Z,100785.63
2023-03-19T17:51:59.442Z,100790.75
2023-03-19T17:54:27.112Z,100794.59
2023-03-19T17:56:54.477Z,100802.03
2023-03-19T17:59:20.987Z,100799.44
2023-03-19T18:01:47.448Z,100801.44
2023-03-19T18:04:17.475Z,100807.63
2023-03-19T18:06:54.023Z,100808.59
2023-03-19T18:09:28.084Z,100812.25
2023-03-19T18:11:55.532Z,100814.09
2023-03-19T18:14:21.891Z,100819.41
2023-03-19T18:16:48.465Z,100825.59
2023-03-19T18:19:28.370Z,100825.31
2023-03-19T18:21:54.932Z,100831.69
2023-03-19T18:24:21.366Z,100829.75
2023-03-19T18:26:47.828Z,100843.16
2023-03-19T18:29:14.197Z,100843.06
2023-03-19T18:31:44.023Z,100841.09
2023-03-19T18:34:13.774Z,100839.97
2023-03-19T18:36:41.224Z,100847.97
2023-03-19T18:39:13.536Z,100857.69
2023-03-19T18:41:40.897Z,100855.91
2023-03-19T18:44:08.034Z,100857.88
2023-03-19T18:46:36.754Z,100872.31
2023-03-19T18:49:07.136Z,100871.34
2023-03-19T18:51:33.647Z,100874.50
2023-03-19T18:54:00.356Z,100878.31
2023-03-19T18:56:30.317Z,100871.94
2023-03-19T18:58:58.602Z,100885.31
2023-03-19T19:01:25.870Z,100884.38
2023-03-19T19:03:52.739Z,100889.47
2023-03-19T19:06:28.287Z,100894.06
2023-03-19T19:09:00.763Z,100902.47
2023-03-19T19:11:27.382Z,100902.47
2023-03-19T19:13:57.507Z,100910.78
2023-03-19T19:16:28.133Z,100918.22
2023-03-19T19:18:54.655Z,100920.44
2023-03-19T19:21:21.102Z,100927.19
2023-03-19T19:23:47.446Z,100937.69
2023-03-19T19:26:25.223Z,100946.28
2023-03-19T19:28:52.953Z,100941.81
2023-03-19T19:31:31.561Z,100955.97
2023-03-19T19:34:00.005Z,100961.41
2023-03-19T19:36:27.640Z,100966.69
2023-03-19T19:38:55.221Z,100975.66
2023-03-19T19:41:24.500Z,100974.66
2023-03-19T19:43:53.446Z,100975.34
2023-03-19T19:46:22.374Z,100981.94
2023-03-19T19:48:49.473Z,100976.38
2023-03-19T19:51:27.735Z,100989.19
2023-03-19T19:53:54.368Z,100987.84
2023-03-19T19:56:23.549Z,101001.50
2023-03-19T19:58:53.426Z,100997.13
2023-03-19T20:01:22.792Z,101001.69
2023-03-19T20:03:50.430Z,101007.25
2023-03-19T20:06:17.660Z,100999.31
2023-03-19T20:08:44.798Z,101007.41
2023-03-19T20:11:23.319Z,101006.41
2023-03-19T20:13:55.471Z,101009.94
2023-03-19T20:16:24.456Z,101003.72
2023-03-19T20:18:54.667Z,100994.94
2023-03-19T20:21:22.459Z,101007.75
2023-03-19T20:23:53.100Z,101013.47
2023-03-19T20:26:22.264Z,101009.47
2023-03-19T20:28:49.380Z,101010.97
2023-03-19T20:31:19.535Z,101012.47
2023-03-19T20:33:45.995Z,101011.50
2023-03-19T20:36:15.618Z,101017.53
2023-03-19T20:38:42.563Z,101021.94
2023-03-19T20:41:21.613Z,101028.81
2023-03-19T20:43:49.139Z,101027.94
2023-03-19T20:46:16.215Z,101032.97
2023-03-19T20:48:42.526Z,101034.63
2023-03-19T20:51:18.004Z,101032.63
2023-03-19T20:53:44.320Z,101029.91
2023-03-19T20:56:15.899Z,101032.59
2023-03-19T20:58:42.360Z,101036.94
2023-03-19T21:01:09.733Z,101045.81
2023-03-19T21:03:36.480Z,101041.09
2023-03-19T21:06:06.065Z,101045.28
2023-03-19T21:08:47.596Z,101041.22
2023-03-19T21:11:19.141Z,101033.63
2023-03-19T21:13:46.368Z,101038.50
2023-03-19T21:16:17.991Z,101038.50
2023-03-19T21:18:44.712Z,101041.66
2023-03-19T21:21:13.590Z,101047.22
2023-03-19T21:23:45.266Z,101047.38
2023-03-19T21:26:17.444Z,101034.41
2023-03-19T21:28:45.618Z,101037.59
2023-03-19T21:31:20.415Z,101034.03
2023-03-19T21:33:48.440Z,101056.06
2023-03-19T21:36:15.255Z,101057.22
2023-03-19T21:38:41.861Z,101050.47
2023-03-19T21:41:22.356Z,101052.78
2023-03-19T21:43:56.178Z,101055.97
2023-03-19T21:46:26.546Z,101054.72
2023-03-19T21:48:57.263Z,101058.06
2023-03-19T21:51:24.994Z,101051.63
2023-03-19T21:53:51.849Z,101047.53
2023-03-19T21:56:22.075Z,101047.16
2023-03-19T21:58:51.195Z,101046.78
2023-03-19T22:01:24.249Z,101049.78
2023-03-19T22:03:55.490Z,101052.09
2023-03-19T22:06:22.481Z,101044.50
2023-03-19T22:08:48.874Z,101053.03
2023-03-19T22:11:24.249Z,101052.50
2023-03-19T22:13:50.887Z,101061.84
2023-03-19T22:16:20.402Z,101053.41
2023-03-19T22:18:47.380Z,101063.63
2023-03-19T22:21:16.330Z,101066.63
2023-03-19T22:23:42.664Z,101067.91
2023-03-19T22:26:33.796Z,101064.00
2023-03-19T22:29:19.324Z,101065.47
2023-03-19T22:31:48.881Z,101064.38
2023-03-19T22:34:17.484Z,101066.69
2023-03-19T22:36:44.330Z,101061.94
2023-03-19T22:39:10.848Z,101065.94
2023-03-19T22:41:40.076Z,101064.53
2023-03-19T22:44:19.239Z,101065.81
2023-03-19T22:46:46.118Z,101072.50
2023-03-19T22:49:15.648Z,101079.84
2023-03-19T22:51:43.526Z,101083.84
2023-03-19T22:54:11.878Z,101087.66
2023-03-19T22:56:38.504Z,101096.84
2023-03-19T22:59:05.168Z,101097.13
2023-03-19T23:01:36.317Z,101090.22
2023-03-19T23:04:24.531Z,101084.19
2023-03-19T23:06:52.709Z,101083.63
2023-03-19T23:09:29.369Z,101087.44
2023-03-19T23:11:57.703Z,101086.19
2023-03-19T23:14:31.590Z,101081.44
2023-03-19T23:17:01.942Z,101080.19
2023-03-19T23:19:31.350Z,101095.88
2023-03-19T23:21:59.698Z,101090.09
2023-03-19T23:24:27.752Z,101089.81
2023-03-19T23:26:55.848Z,101082.34
2023-03-19T23:29:34.299Z,101079.25
2023-03-19T23:32:00.762Z,101075.16
2023-03-19T23:34:28.540Z,101080.81
2023-03-19T23:36:56.177Z,101083.78
2023-03-19T23:39:23.864Z,101096.47
2023-03-19T23:41:54.347Z,101094.81
2023-03-19T23:44:21.888Z,101090.56
2023-03-19T23:46:50.760Z,101103.28
2023-03-19T23:49:24.756Z,101104.28
2023-03-19T23:51:51.483Z,101105.41
2023-03-19T23:54:28.572Z,101105.69
2023-03-19T23:57:01.066Z,101112.03
2023-03-19T23:59:31.461Z,101115.00
